Decoded Metar for KMYV (MARYSVILLE in CA, USA) (IATA:MYV) | Meteo·Mobile Aviation Weather
aviador You're here:

KMYV Decoded Metar

MARYSVILLE in CA, USA
Report Time2018-09-18 21:53:00
UTC Time2018-09-18 22:58:50
Flight Rules vfr VFR
Wind270° at 06 kt
W.Decomp.*RWY 23: 5.5 kt HW 2.4 kt RCW
RWY 32: 2.4 kt HW 5.5 kt LCW
W.Rank270° ranks 32
Current wind is above 270° avg. (4.8)
Visibility9999 m
Phenomena:N/A
Clouds:N/A
Expected CloudBase > 6,800 ft AGL from Temp-Dew spread
CeilingNone
Temp27°C (ISA +12)
Dew Point10°C (34% RH)
Heat Index26.6°C
AAT24.8°C
QNH1012 hPa
Density Alt1,670 ft
Elevation69 ft
Report Wrong Elevation
Raw Report
KMYV 182153Z AUTO 27006KT 10SM CLR 27/10 A2987 RMK AO2 SLP117
T02720100=

Extra information for KMYV:More info

Metar Taf Metar & Taf Last 4 Metars F.Rules Stats Wind Profile Meteogram Temp Stats Airport Information Weather charts Add Link Nearby VenuesMetar ALERT Operation Metar Decoded Social comments

AIRNAV info for KMYV